Terminal Aerodrome Forecast
Issued by NWS

Home | Current Version | Previous Version | Graphics & Text | Print | Product List | Glossary On
Versions: 1 2 3 4 5 6 7 8 9 10 11 12 13 14
000
FTUS43 KIWX 201700
TAFSBN
TAF
KSBN 201733Z 2018/2118 27016G24KT P6SM BKN035
     FM201900 28015G22KT 6SM -SHSN BKN030
      TEMPO 2019/2023 3SM -SHSN
     FM202300 28012KT P6SM BKN035
     FM211200 20006KT P6SM SCT250=

USA.gov is the U.S. government's official web portal to all federal, state and local government web resources and services.